Time;durP1;ratioP1;P1;durP2;ratioP2;P2;SDS_P1;SDS_P2;PMS_P1;PMS_P2;Temp;Humidity;BMP_temperature;BMP_pressure;BME280_temperature;BME280_humidity;BME280_pressure;Samples;Min_cycle;Max_cycle;Signal;HPM_P1;HPM_P2
2023/08/05 00:00:27;;;;;;;6.50;3.80;;;;;;;;;;4993455;28;20324;-79
2023/08/05 00:02:53;;;;;;;8.40;4.20;;;;;;;;;;4992997;28;20214;-79
2023/08/05 00:05:19;;;;;;;5.83;3.77;;;;;;;;;;5002037;28;20257;-75
2023/08/05 00:07:45;;;;;;;8.73;4.00;;;;;;;;;;5012191;28;20181;-75
2023/08/05 00:10:11;;;;;;;7.03;4.23;;;;;;;;;;4992761;28;20185;-75
2023/08/05 00:12:37;;;;;;;6.93;3.90;;;;;;;;;;5016616;28;20182;-75
2023/08/05 00:15:03;;;;;;;8.20;4.00;;;;;;;;;;4984946;28;20194;-75
2023/08/05 00:17:29;;;;;;;8.97;4.07;;;;;;;;;;4993079;28;20190;-76
2023/08/05 00:19:55;;;;;;;5.63;3.90;;;;;;;;;;5010164;28;20270;-76
2023/08/05 00:22:21;;;;;;;6.23;4.40;;;;;;;;;;5000826;28;20194;-75
2023/08/05 00:24:47;;;;;;;6.80;3.93;;;;;;;;;;5008287;28;20243;-74
2023/08/05 00:27:13;;;;;;;6.93;4.00;;;;;;;;;;4999989;28;20196;-75
2023/08/05 00:29:39;;;;;;;7.23;4.33;;;;;;;;;;4999341;28;20188;-74
2023/08/05 00:32:05;;;;;;;7.00;4.40;;;;;;;;;;4991895;28;20201;-75
2023/08/05 00:34:33;;;;;;;10.53;4.40;;;;;;;;;;4996563;28;20209;-75
2023/08/05 00:36:59;;;;;;;8.33;4.47;;;;;;;;;;4996172;28;20209;-75
2023/08/05 00:39:25;;;;;;;9.10;4.30;;;;;;;;;;5001974;28;20213;-75
2023/08/05 00:41:51;;;;;;;6.50;4.20;;;;;;;;;;4999432;28;20177;-75
2023/08/05 00:44:17;;;;;;;8.00;4.70;;;;;;;;;;4998990;28;20182;-75
2023/08/05 00:46:43;;;;;;;9.83;4.00;;;;;;;;;;5015392;28;20182;-76
2023/08/05 00:49:10;;;;;;;6.47;4.43;;;;;;;;;;5016413;28;20228;-75
2023/08/05 00:51:36;;;;;;;7.50;4.53;;;;;;;;;;5001448;28;20237;-76
2023/08/05 00:54:02;;;;;;;7.90;4.37;;;;;;;;;;4992343;28;20217;-75
2023/08/05 00:56:28;;;;;;;11.50;4.90;;;;;;;;;;5016055;28;20279;-76
2023/08/05 00:58:54;;;;;;;8.37;4.17;;;;;;;;;;4991394;28;20228;-76
2023/08/05 01:01:20;;;;;;;8.93;4.40;;;;;;;;;;5005569;28;20184;-75
2023/08/05 01:03:46;;;;;;;6.33;4.50;;;;;;;;;;5017074;28;20185;-75
2023/08/05 01:06:13;;;;;;;8.13;4.50;;;;;;;;;;5002306;28;20283;-75
2023/08/05 01:08:39;;;;;;;9.87;4.30;;;;;;;;;;5035808;28;20195;-76
2023/08/05 01:11:05;;;;;;;7.33;4.33;;;;;;;;;;5018447;28;20188;-76
2023/08/05 01:13:31;;;;;;;10.97;4.40;;;;;;;;;;5014415;28;20265;-76
2023/08/05 01:15:57;;;;;;;6.83;4.30;;;;;;;;;;5028368;28;20185;-75
2023/08/05 01:18:24;;;;;;;8.17;4.27;;;;;;;;;;5016435;28;20185;-75
2023/08/05 01:20:53;;;;;;;7.80;4.87;;;;;;;;;;4998742;28;20189;-76
2023/08/05 01:23:36;;;;;;;9.13;4.90;;;;;;;;;;5013261;28;20185;-75
2023/08/05 01:26:03;;;;;;;7.77;4.40;;;;;;;;;;5030588;28;20208;-76
2023/08/05 01:28:29;;;;;;;6.20;4.53;;;;;;;;;;4997740;28;20180;-75
2023/08/05 01:30:56;;;;;;;8.10;4.30;;;;;;;;;;5008702;28;20228;-75
2023/08/05 01:33:22;;;;;;;10.77;4.70;;;;;;;;;;5026740;28;20180;-76
2023/08/05 01:35:49;;;;;;;7.73;4.57;;;;;;;;;;5013183;28;20189;-76
2023/08/05 01:38:15;;;;;;;5.90;4.30;;;;;;;;;;4997738;28;20178;-75
2023/08/05 01:40:41;;;;;;;11.33;4.43;;;;;;;;;;5022712;28;20267;-75
2023/08/05 01:43:07;;;;;;;6.53;4.53;;;;;;;;;;5022720;28;20209;-76
2023/08/05 01:45:33;;;;;;;7.97;4.47;;;;;;;;;;5011376;28;20199;-75
2023/08/05 01:47:59;;;;;;;8.17;5.17;;;;;;;;;;5035193;28;20180;-76
2023/08/05 01:50:25;;;;;;;7.50;4.70;;;;;;;;;;5035375;28;20233;-76
2023/08/05 01:52:53;;;;;;;10.07;4.83;;;;;;;;;;5026261;28;20321;-75
2023/08/05 01:55:19;;;;;;;8.47;4.60;;;;;;;;;;5011857;28;20275;-76
2023/08/05 01:57:45;;;;;;;8.83;4.50;;;;;;;;;;5015597;28;20289;-75
2023/08/05 02:00:11;;;;;;;8.00;4.63;;;;;;;;;;5012330;28;20208;-76
2023/08/05 02:02:37;;;;;;;7.50;4.70;;;;;;;;;;5001098;28;20196;-76
2023/08/05 02:05:03;;;;;;;9.27;4.83;;;;;;;;;;5016271;28;20197;-75
2023/08/05 02:07:29;;;;;;;8.33;5.00;;;;;;;;;;5003636;28;20249;-75
2023/08/05 02:09:55;;;;;;;6.13;4.73;;;;;;;;;;5005073;28;20339;-76
2023/08/05 02:12:21;;;;;;;6.90;5.13;;;;;;;;;;5017240;28;20185;-76
2023/08/05 02:14:47;;;;;;;6.53;5.10;;;;;;;;;;5015121;28;20188;-75
2023/08/05 02:17:13;;;;;;;9.30;5.20;;;;;;;;;;5016702;28;20188;-75
2023/08/05 02:19:39;;;;;;;7.87;5.53;;;;;;;;;;5017081;28;20235;-75
2023/08/05 02:22:05;;;;;;;5.77;4.77;;;;;;;;;;5011716;28;20213;-75
2023/08/05 02:24:31;;;;;;;8.87;4.83;;;;;;;;;;5013175;28;20184;-74
2023/08/05 02:26:57;;;;;;;10.50;5.10;;;;;;;;;;5007285;28;20254;-75
2023/08/05 02:29:23;;;;;;;5.70;4.53;;;;;;;;;;5016749;28;20193;-75
2023/08/05 02:31:49;;;;;;;9.83;5.07;;;;;;;;;;5016636;28;20206;-75
2023/08/05 02:34:15;;;;;;;6.77;5.00;;;;;;;;;;5017368;28;20240;-75
2023/08/05 02:36:41;;;;;;;5.33;4.70;;;;;;;;;;4997367;28;20181;-75
2023/08/05 02:39:07;;;;;;;7.20;5.00;;;;;;;;;;5033797;28;20237;-75
2023/08/05 02:41:33;;;;;;;6.63;5.27;;;;;;;;;;5000196;28;20185;-75
2023/08/05 02:43:59;;;;;;;8.33;5.13;;;;;;;;;;5016292;28;20185;-75
2023/08/05 02:46:25;;;;;;;8.27;4.80;;;;;;;;;;5015120;28;20185;-75
2023/08/05 02:48:51;;;;;;;6.93;4.83;;;;;;;;;;5002925;28;20186;-75
2023/08/05 02:51:17;;;;;;;8.17;4.93;;;;;;;;;;5005087;28;20188;-74
2023/08/05 02:53:44;;;;;;;8.10;5.10;;;;;;;;;;4984579;28;20192;-74
2023/08/05 02:56:10;;;;;;;9.40;5.00;;;;;;;;;;5033720;28;20180;-74
2023/08/05 02:58:36;;;;;;;9.23;5.10;;;;;;;;;;5015829;28;20243;-75
2023/08/05 03:01:09;;;;;;;6.77;5.40;;;;;;;;;;4985587;28;20190;-74
2023/08/05 03:03:38;;;;;;;7.93;4.87;;;;;;;;;;5011012;28;20280;-74
2023/08/05 03:06:04;;;;;;;11.47;5.10;;;;;;;;;;4998469;28;20259;-74
2023/08/05 03:08:30;;;;;;;9.87;5.30;;;;;;;;;;5033916;28;20177;-75
2023/08/05 03:10:59;;;;;;;8.37;5.37;;;;;;;;;;5016864;28;20176;-75
2023/08/05 03:13:25;;;;;;;6.17;5.30;;;;;;;;;;5010156;28;20186;-75
2023/08/05 03:15:51;;;;;;;7.10;5.00;;;;;;;;;;5005216;28;20177;-75
2023/08/05 03:18:17;;;;;;;6.63;5.43;;;;;;;;;;5028865;28;20211;-75
2023/08/05 03:20:43;;;;;;;9.77;5.30;;;;;;;;;;5003942;28;20180;-79
2023/08/05 03:23:10;;;;;;;6.10;5.40;;;;;;;;;;5031519;28;20264;-79
2023/08/05 03:25:36;;;;;;;6.00;4.83;;;;;;;;;;5013441;28;20310;-76
2023/08/05 03:28:02;;;;;;;8.50;5.07;;;;;;;;;;5016062;28;20208;-76
2023/08/05 03:30:30;;;;;;;8.53;5.10;;;;;;;;;;5016378;28;20204;-76
2023/08/05 03:32:56;;;;;;;8.03;5.67;;;;;;;;;;4986187;28;20189;-75
2023/08/05 03:35:22;;;;;;;8.27;5.30;;;;;;;;;;5007582;28;20219;-76
2023/08/05 03:37:48;;;;;;;7.70;5.00;;;;;;;;;;5001621;28;20220;-76
2023/08/05 03:40:14;;;;;;;6.13;4.77;;;;;;;;;;4996509;28;20310;-75
2023/08/05 03:42:40;;;;;;;9.10;4.93;;;;;;;;;;5012718;28;20219;-79
2023/08/05 03:45:06;;;;;;;6.63;5.40;;;;;;;;;;5007588;28;20188;-78
2023/08/05 03:47:33;;;;;;;7.83;5.57;;;;;;;;;;4996939;28;20173;-79
2023/08/05 03:50:00;;;;;;;7.80;5.17;;;;;;;;;;5013107;28;20185;-79
2023/08/05 03:52:26;;;;;;;7.07;5.47;;;;;;;;;;5015104;28;20232;-79
2023/08/05 03:54:53;;;;;;;7.57;5.33;;;;;;;;;;4996600;28;20189;-79
2023/08/05 03:57:19;;;;;;;6.53;5.20;;;;;;;;;;5014100;28;20193;-78
2023/08/05 03:59:47;;;;;;;9.80;5.47;;;;;;;;;;4997018;28;20209;-75
2023/08/05 04:02:14;;;;;;;11.63;5.80;;;;;;;;;;5000329;28;20208;-74
2023/08/05 04:04:42;;;;;;;13.13;5.60;;;;;;;;;;5019515;28;20259;-74
2023/08/05 04:07:08;;;;;;;9.33;5.30;;;;;;;;;;5037136;28;20193;-74
2023/08/05 04:09:36;;;;;;;12.23;5.70;;;;;;;;;;4992345;28;20209;-78
2023/08/05 04:12:05;;;;;;;10.73;5.73;;;;;;;;;;5004600;28;20223;-74
2023/08/05 04:14:31;;;;;;;7.90;5.40;;;;;;;;;;4991445;28;20188;-75
2023/08/05 04:16:57;;;;;;;6.30;4.97;;;;;;;;;;4991655;28;20189;-76
2023/08/05 04:19:25;;;;;;;7.60;5.53;;;;;;;;;;5017463;28;20224;-75
2023/08/05 04:21:52;;;;;;;8.63;5.50;;;;;;;;;;4999997;28;20181;-75
2023/08/05 04:24:22;;;;;;;7.87;5.73;;;;;;;;;;5026608;28;20185;-75
2023/08/05 04:26:50;;;;;;;8.93;5.67;;;;;;;;;;5035376;28;20180;-75
2023/08/05 04:29:17;;;;;;;9.60;5.80;;;;;;;;;;5017343;28;20184;-75
2023/08/05 04:31:43;;;;;;;8.23;5.33;;;;;;;;;;5020609;28;20184;-74
2023/08/05 04:34:09;;;;;;;9.73;5.20;;;;;;;;;;5000134;28;20221;-74
2023/08/05 04:36:35;;;;;;;10.60;5.83;;;;;;;;;;4999714;28;20196;-74
2023/08/05 04:39:03;;;;;;;9.73;5.63;;;;;;;;;;5017405;28;20213;-74
2023/08/05 04:41:29;;;;;;;10.43;6.00;;;;;;;;;;5000737;28;20181;-74
2023/08/05 04:43:56;;;;;;;10.30;5.97;;;;;;;;;;5001858;28;20241;-74
2023/08/05 04:46:22;;;;;;;10.57;7.20;;;;;;;;;;5002875;28;20185;-74
2023/08/05 04:48:48;;;;;;;10.77;7.47;;;;;;;;;;5002139;28;20191;-75
2023/08/05 04:51:15;;;;;;;10.13;7.43;;;;;;;;;;5031714;28;20181;-75
2023/08/05 04:53:40;;;;;;;13.50;7.57;;;;;;;;;;5032392;28;20225;-75
2023/08/05 04:56:07;;;;;;;9.43;7.60;;;;;;;;;;5027555;28;20199;-75
2023/08/05 04:58:33;;;;;;;10.47;7.87;;;;;;;;;;5002667;28;20255;-75
2023/08/05 05:00:59;;;;;;;10.90;8.80;;;;;;;;;;5002756;28;20180;-75
2023/08/05 05:03:25;;;;;;;10.83;9.17;;;;;;;;;;5001150;28;20184;-75
2023/08/05 05:05:51;;;;;;;13.13;9.20;;;;;;;;;;5002564;28;20264;-74
2023/08/05 05:08:17;;;;;;;12.80;9.03;;;;;;;;;;5002419;28;20189;-74
2023/08/05 05:10:47;;;;;;;10.90;8.70;;;;;;;;;;5018538;28;20181;-74
2023/08/05 05:13:13;;;;;;;11.97;9.27;;;;;;;;;;4999869;28;20256;-74
2023/08/05 05:15:39;;;;;;;12.83;9.30;;;;;;;;;;4982747;28;20244;-75
2023/08/05 05:18:05;;;;;;;11.93;8.80;;;;;;;;;;4982690;28;20193;-75
2023/08/05 05:20:31;;;;;;;14.27;9.10;;;;;;;;;;4994818;28;20212;-74
2023/08/05 05:22:57;;;;;;;10.93;9.63;;;;;;;;;;5035665;28;20185;-75
2023/08/05 05:25:23;;;;;;;12.03;9.03;;;;;;;;;;5034260;28;20177;-75
2023/08/05 05:27:49;;;;;;;12.97;9.90;;;;;;;;;;5005498;28;20193;-76
2023/08/05 05:30:15;;;;;;;14.40;10.17;;;;;;;;;;5022253;28;20178;-75
2023/08/05 05:32:41;;;;;;;13.67;10.30;;;;;;;;;;5023410;28;20192;-75
2023/08/05 05:35:08;;;;;;;13.10;10.67;;;;;;;;;;5038041;28;20203;-75
2023/08/05 05:37:34;;;;;;;11.27;10.07;;;;;;;;;;5025832;28;20180;-79
2023/08/05 05:40:00;;;;;;;16.23;10.83;;;;;;;;;;5044491;28;20208;-78
2023/08/05 05:42:26;;;;;;;14.53;11.33;;;;;;;;;;5024298;28;20191;-79
2023/08/05 05:44:54;;;;;;;12.07;10.87;;;;;;;;;;5034087;28;20218;-79
2023/08/05 05:47:21;;;;;;;12.60;10.63;;;;;;;;;;5026804;28;20185;-79
2023/08/05 05:49:47;;;;;;;18.33;11.13;;;;;;;;;;5008551;28;20194;-79
2023/08/05 05:52:16;;;;;;;13.43;10.70;;;;;;;;;;5038728;28;20228;-79
2023/08/05 05:54:42;;;;;;;14.37;10.90;;;;;;;;;;5048111;28;20201;-75
2023/08/05 05:57:09;;;;;;;13.93;10.83;;;;;;;;;;5021168;28;20205;-75
2023/08/05 05:59:35;;;;;;;14.07;11.00;;;;;;;;;;5006348;28;20221;-75
2023/08/05 06:02:01;;;;;;;16.20;11.07;;;;;;;;;;5025260;28;20209;-75
2023/08/05 06:04:28;;;;;;;11.70;10.43;;;;;;;;;;5024915;28;20181;-79
2023/08/05 06:06:54;;;;;;;12.93;10.40;;;;;;;;;;5026017;28;20192;-79
2023/08/05 06:09:21;;;;;;;16.37;11.17;;;;;;;;;;5021168;28;20188;-80
2023/08/05 06:11:47;;;;;;;15.53;11.37;;;;;;;;;;5024167;28;20213;-75
2023/08/05 06:14:13;;;;;;;13.47;11.23;;;;;;;;;;5007719;28;20180;-75
2023/08/05 06:16:39;;;;;;;13.83;10.60;;;;;;;;;;5026198;28;20279;-75
2023/08/05 06:19:05;;;;;;;14.83;11.13;;;;;;;;;;5039208;28;20235;-76
2023/08/05 06:21:31;;;;;;;14.67;11.97;;;;;;;;;;5014852;28;20227;-76
2023/08/05 06:23:57;;;;;;;14.00;11.37;;;;;;;;;;5042170;28;20180;-76
2023/08/05 06:26:23;;;;;;;14.67;12.40;;;;;;;;;;5016085;28;20188;-76
2023/08/05 06:28:50;;;;;;;14.07;11.47;;;;;;;;;;5021232;28;20192;-76
2023/08/05 06:31:16;;;;;;;13.47;11.57;;;;;;;;;;5027521;28;20195;-76
2023/08/05 06:33:42;;;;;;;15.47;11.63;;;;;;;;;;5020473;28;20226;-76
2023/08/05 06:36:09;;;;;;;13.43;11.53;;;;;;;;;;5043359;28;20183;-76
2023/08/05 06:38:35;;;;;;;16.60;10.70;;;;;;;;;;5022690;28;20189;-74
2023/08/05 06:41:01;;;;;;;14.07;10.50;;;;;;;;;;5023892;28;20176;-74
2023/08/05 06:43:27;;;;;;;18.30;10.63;;;;;;;;;;5018553;28;20209;-77
2023/08/05 06:45:53;;;;;;;15.23;10.67;;;;;;;;;;5022507;28;20181;-73
2023/08/05 06:48:20;;;;;;;13.50;10.67;;;;;;;;;;5041994;28;20180;-74
2023/08/05 06:50:46;;;;;;;13.23;10.43;;;;;;;;;;5018745;28;20176;-76
2023/08/05 06:53:12;;;;;;;12.67;10.70;;;;;;;;;;5024787;28;20227;-76
2023/08/05 06:55:38;;;;;;;14.27;10.30;;;;;;;;;;5018688;28;20212;-74
2023/08/05 06:58:04;;;;;;;13.97;11.07;;;;;;;;;;5044007;28;20216;-79
2023/08/05 07:00:30;;;;;;;15.67;10.87;;;;;;;;;;5021414;28;20207;-79
2023/08/05 07:02:57;;;;;;;14.60;10.67;;;;;;;;;;5034371;28;20184;-75
2023/08/05 07:05:23;;;;;;;15.93;11.00;;;;;;;;;;5016916;28;20181;-77
2023/08/05 07:07:50;;;;;;;18.40;11.33;;;;;;;;;;5013526;28;20275;-75
2023/08/05 07:10:16;;;;;;;14.77;11.53;;;;;;;;;;4997086;28;20185;-75
2023/08/05 07:12:42;;;;;;;16.70;12.13;;;;;;;;;;4997060;28;20200;-75
2023/08/05 07:15:08;;;;;;;15.53;13.03;;;;;;;;;;4997535;28;20185;-75
2023/08/05 07:17:35;;;;;;;15.50;12.57;;;;;;;;;;5014694;28;20177;-75
2023/08/05 07:20:04;;;;;;;13.47;11.90;;;;;;;;;;5014399;28;20200;-75
2023/08/05 07:22:30;;;;;;;15.83;12.20;;;;;;;;;;5003595;28;20231;-75
2023/08/05 07:24:56;;;;;;;14.57;12.43;;;;;;;;;;4996901;28;20185;-75
2023/08/05 07:27:22;;;;;;;14.40;12.90;;;;;;;;;;4997151;28;20177;-75
2023/08/05 07:29:48;;;;;;;21.70;13.83;;;;;;;;;;5034210;28;20176;-75
2023/08/05 07:32:14;;;;;;;16.20;13.52;;;;;;;;;;5033598;28;20405;-75
2023/08/05 07:34:40;;;;;;;44.07;14.97;;;;;;;;;;5016528;28;20177;-75
2023/08/05 07:37:06;;;;;;;17.87;13.77;;;;;;;;;;5033688;28;20270;-75
2023/08/05 07:39:36;;;;;;;238.73;28.27;;;;;;;;;;5033871;28;20291;-75
2023/08/05 07:42:02;;;;;;;21.15;17.30;;;;;;;;;;5012474;28;20422;-75
2023/08/05 07:44:31;;;;;;;18.93;14.03;;;;;;;;;;4980845;28;20185;-75
2023/08/05 07:46:57;;;;;;;19.40;13.83;;;;;;;;;;5014168;28;20173;-75
2023/08/05 07:49:23;;;;;;;16.97;13.10;;;;;;;;;;4980590;28;20189;-75
2023/08/05 07:51:51;;;;;;;14.10;12.33;;;;;;;;;;4996825;28;20184;-75
2023/08/05 07:54:17;;;;;;;15.63;11.30;;;;;;;;;;4997504;28;20177;-75
2023/08/05 07:56:45;;;;;;;14.53;10.73;;;;;;;;;;4996839;28;20181;-75
2023/08/05 07:59:12;;;;;;;14.43;10.13;;;;;;;;;;4996360;28;20201;-75
2023/08/05 08:01:42;;;;;;;16.33;10.07;;;;;;;;;;4999214;28;20173;-75
2023/08/05 08:04:14;;;;;;;11.90;10.07;;;;;;;;;;5030919;28;20180;-75
2023/08/05 08:06:42;;;;;;;11.53;8.97;;;;;;;;;;5016130;28;20168;-75
2023/08/05 08:09:08;;;;;;;10.70;9.60;;;;;;;;;;5033704;28;20184;-79
2023/08/05 08:11:34;;;;;;;12.73;9.97;;;;;;;;;;5016263;28;20188;-79
2023/08/05 08:14:00;;;;;;;13.20;10.30;;;;;;;;;;5016097;28;20181;-78
2023/08/05 08:16:26;;;;;;;13.90;10.00;;;;;;;;;;5016322;28;20196;-79
2023/08/05 08:18:52;;;;;;;11.27;9.67;;;;;;;;;;5015907;28;20208;-79
2023/08/05 08:21:18;;;;;;;10.30;9.20;;;;;;;;;;5015596;28;20185;-79
2023/08/05 08:23:44;;;;;;;12.53;7.97;;;;;;;;;;5011014;28;20184;-79
2023/08/05 08:26:10;;;;;;;10.43;8.30;;;;;;;;;;5027201;28;20273;-79
2023/08/05 08:28:36;;;;;;;13.23;8.40;;;;;;;;;;4996752;28;20177;-79
2023/08/05 08:31:02;;;;;;;11.03;8.07;;;;;;;;;;5006883;28;20203;-80
2023/08/05 08:33:28;;;;;;;9.47;7.33;;;;;;;;;;5004611;28;20203;-79
2023/08/05 08:35:54;;;;;;;10.07;7.10;;;;;;;;;;4998183;28;20185;-79
2023/08/05 08:38:22;;;;;;;8.97;7.43;;;;;;;;;;5033447;28;20184;-80
2023/08/05 08:40:49;;;;;;;8.57;7.37;;;;;;;;;;5033888;28;20242;-79
2023/08/05 08:43:18;;;;;;;9.07;8.13;;;;;;;;;;5016183;28;20231;-79
2023/08/05 08:45:45;;;;;;;11.67;9.27;;;;;;;;;;5012701;28;20205;-79
2023/08/05 08:48:11;;;;;;;9.53;8.60;;;;;;;;;;4983451;28;20268;-80
2023/08/05 08:50:40;;;;;;;10.83;9.70;;;;;;;;;;5000474;28;20189;-80
2023/08/05 08:53:10;;;;;;;10.90;9.50;;;;;;;;;;5015629;23;20260;-75
2023/08/05 08:55:41;;;;;;;11.53;9.17;;;;;;;;;;5009418;28;20188;-75
2023/08/05 08:58:07;;;;;;;10.77;9.63;;;;;;;;;;5009515;28;20181;-75
2023/08/05 09:00:33;;;;;;;10.23;9.20;;;;;;;;;;4995267;28;20213;-75
2023/08/05 09:03:02;;;;;;;9.20;8.27;;;;;;;;;;5030182;28;20180;-75
2023/08/05 09:05:34;;;;;;;8.33;7.43;;;;;;;;;;5024858;28;20205;-75
2023/08/05 09:08:01;;;;;;;10.23;7.70;;;;;;;;;;5008056;28;20231;-74
2023/08/05 09:10:27;;;;;;;7.97;7.17;;;;;;;;;;5009485;28;20248;-75
2023/08/05 09:12:53;;;;;;;9.10;7.43;;;;;;;;;;4995787;28;20328;-75
2023/08/05 09:15:21;;;;;;;8.17;7.37;;;;;;;;;;4992997;28;20185;-75
2023/08/05 09:17:47;;;;;;;7.63;6.80;;;;;;;;;;5036409;28;20185;-75
2023/08/05 09:20:16;;;;;;;7.37;6.67;;;;;;;;;;5018983;28;20208;-76
2023/08/05 09:22:52;;;;;;;8.33;6.30;;;;;;;;;;5018914;28;20260;-75
2023/08/05 09:25:18;;;;;;;5.93;5.33;;;;;;;;;;5019140;28;20203;-76
2023/08/05 09:27:46;;;;;;;6.27;5.73;;;;;;;;;;5002247;28;20181;-75
2023/08/05 09:30:18;;;;;;;6.10;4.80;;;;;;;;;;5002383;28;20184;-76
2023/08/05 09:32:45;;;;;;;6.00;5.17;;;;;;;;;;5028048;28;20192;-75
2023/08/05 09:35:12;;;;;;;6.07;5.47;;;;;;;;;;5033272;28;20251;-75
2023/08/05 09:37:39;;;;;;;7.40;5.33;;;;;;;;;;5035939;28;20223;-75
2023/08/05 09:40:15;;;;;;;6.77;5.67;;;;;;;;;;5018391;28;20280;-75
2023/08/05 09:42:41;;;;;;;5.83;5.17;;;;;;;;;;5018380;28;20208;-75
2023/08/05 09:45:09;;;;;;;8.77;5.27;;;;;;;;;;5031883;28;20184;-76
2023/08/05 09:47:35;;;;;;;6.90;5.50;;;;;;;;;;4999180;28;20232;-75
2023/08/05 09:50:04;;;;;;;6.83;6.13;;;;;;;;;;5014973;28;20188;-76
2023/08/05 09:52:33;;;;;;;6.63;6.00;;;;;;;;;;5014971;28;20315;-76
2023/08/05 09:54:59;;;;;;;7.57;6.17;;;;;;;;;;5016052;28;20177;-76
2023/08/05 09:57:28;;;;;;;6.43;5.63;;;;;;;;;;5014506;28;20235;-76
2023/08/05 09:59:54;;;;;;;6.60;6.10;;;;;;;;;;5014733;28;20213;-76
2023/08/05 10:02:27;;;;;;;6.83;4.50;;;;;;;;;;5015307;28;20190;-76
2023/08/05 10:04:53;;;;;;;6.13;4.43;;;;;;;;;;4999123;28;20177;-76
2023/08/05 10:07:27;;;;;;;6.33;4.17;;;;;;;;;;5015371;28;20177;-75
2023/08/05 10:09:53;;;;;;;7.87;4.43;;;;;;;;;;5014716;28;20181;-76
2023/08/05 10:12:22;;;;;;;7.50;4.10;;;;;;;;;;5015948;28;20181;-75
2023/08/05 10:14:48;;;;;;;4.63;3.90;;;;;;;;;;5015629;28;20235;-75
2023/08/05 10:17:14;;;;;;;4.30;3.97;;;;;;;;;;4998403;28;20185;-76
2023/08/05 10:19:40;;;;;;;4.17;3.57;;;;;;;;;;5014254;28;20312;-76
2023/08/05 10:22:08;;;;;;;4.70;3.83;;;;;;;;;;5015945;28;20260;-80
2023/08/05 10:24:50;;;;;;;3.97;3.47;;;;;;;;;;5017469;28;20176;-80
2023/08/05 10:27:16;;;;;;;3.93;3.47;;;;;;;;;;5007787;28;20209;-80
2023/08/05 10:29:52;;;;;;;5.50;4.00;;;;;;;;;;5023946;28;20200;-80
2023/08/05 10:32:31;;;;;;;4.10;3.80;;;;;;;;;;5035225;28;20214;-81
2023/08/05 10:35:33;;;;;;;4.73;3.83;;;;;;;;;;5017702;28;20196;-80
2023/08/05 10:38:09;;;;;;;6.00;4.37;;;;;;;;;;4954928;28;20261;-80
2023/08/05 10:40:40;;;;;;;4.43;4.03;;;;;;;;;;5007044;28;20212;-80
2023/08/05 10:43:06;;;;;;;5.33;4.10;;;;;;;;;;5034624;28;20176;-80
2023/08/05 10:45:35;;;;;;;4.43;4.00;;;;;;;;;;5017348;28;20203;-80
2023/08/05 10:48:07;;;;;;;5.07;4.10;;;;;;;;;;5008104;28;20260;-80
2023/08/05 10:50:38;;;;;;;5.30;4.10;;;;;;;;;;5015286;28;20191;-80
2023/08/05 10:53:08;;;;;;;4.23;3.93;;;;;;;;;;5015077;28;20229;-80
2023/08/05 10:55:45;;;;;;;4.50;4.10;;;;;;;;;;5015059;28;20180;-75
2023/08/05 10:58:11;;;;;;;4.47;4.07;;;;;;;;;;4997643;28;20205;-76
2023/08/05 11:00:42;;;;;;;8.40;3.77;;;;;;;;;;4981066;28;20221;-76
2023/08/05 11:03:24;;;;;;;4.33;3.90;;;;;;;;;;5014736;28;20172;-76
2023/08/05 11:05:51;;;;;;;4.00;3.60;;;;;;;;;;5014850;28;20169;-75
2023/08/05 11:08:23;;;;;;;4.37;3.80;;;;;;;;;;4984244;28;20212;-75
2023/08/05 11:10:49;;;;;;;5.93;3.90;;;;;;;;;;5003851;28;20271;-80
2023/08/05 11:13:16;;;;;;;5.10;3.90;;;;;;;;;;5014867;28;20177;-80
2023/08/05 11:15:42;;;;;;;3.70;3.40;;;;;;;;;;4997155;28;20177;-80
2023/08/05 11:18:08;;;;;;;5.37;3.90;;;;;;;;;;4997034;28;20235;-80
2023/08/05 11:20:35;;;;;;;4.33;3.40;;;;;;;;;;4980892;28;20212;-80
2023/08/05 11:23:01;;;;;;;4.53;3.40;;;;;;;;;;4997185;28;20263;-80
2023/08/05 11:25:27;;;;;;;4.97;3.57;;;;;;;;;;5012679;28;20191;-79
2023/08/05 11:27:54;;;;;;;4.63;3.30;;;;;;;;;;5034372;28;20187;-77
2023/08/05 11:30:20;;;;;;;4.57;3.67;;;;;;;;;;5000381;28;20192;-77
2023/08/05 11:32:57;;;;;;;5.17;3.60;;;;;;;;;;5000978;28;20214;-77
2023/08/05 11:35:23;;;;;;;3.53;3.22;;;;;;;;;;5016719;28;20184;-77
2023/08/05 11:37:49;;;;;;;7.80;3.50;;;;;;;;;;5017039;28;20180;-77
2023/08/05 11:40:15;;;;;;;3.40;3.10;;;;;;;;;;5017307;28;20212;-77
2023/08/05 11:42:41;;;;;;;3.00;2.70;;;;;;;;;;5016634;28;20180;-77
2023/08/05 11:45:14;;;;;;;3.47;3.17;;;;;;;;;;5024267;28;20266;-76
2023/08/05 11:47:41;;;;;;;7.18;3.97;;;;;;;;;;4995734;28;20188;-76
2023/08/05 11:50:07;;;;;;;3.50;3.20;;;;;;;;;;4995920;28;20223;-76
2023/08/05 11:52:33;;;;;;;3.80;2.97;;;;;;;;;;5009490;28;20255;-76
2023/08/05 11:55:00;;;;;;;4.60;3.30;;;;;;;;;;4999063;28;20417;-76
2023/08/05 11:57:27;;;;;;;3.80;3.40;;;;;;;;;;5000164;28;20205;-77
2023/08/05 11:59:55;;;;;;;4.13;3.28;;;;;;;;;;5033698;28;20200;-76
2023/08/05 12:02:21;;;;;;;5.17;3.27;;;;;;;;;;5015665;28;20244;-76
2023/08/05 12:04:51;;;;;;;7.03;3.33;;;;;;;;;;5014912;28;20238;-76
2023/08/05 12:07:19;;;;;;;7.18;3.70;;;;;;;;;;5015615;28;20204;-80
2023/08/05 12:09:45;;;;;;;6.88;4.90;;;;;;;;;;5015281;28;20492;-79
2023/08/05 12:12:16;;;;;;;5.40;4.90;;;;;;;;;;5015662;28;20187;-78
2023/08/05 12:14:42;;;;;;;7.50;6.20;;;;;;;;;;5015639;28;20219;-79
2023/08/05 12:17:08;;;;;;;13.13;8.43;;;;;;;;;;5015925;28;20323;-79
2023/08/05 12:19:34;;;;;;;8.83;6.27;;;;;;;;;;4999549;28;20307;-79
2023/08/05 12:22:00;;;;;;;6.40;5.10;;;;;;;;;;5017585;28;20185;-79
2023/08/05 12:24:26;;;;;;;5.33;3.40;;;;;;;;;;5019384;28;20183;-76
2023/08/05 12:26:52;;;;;;;4.20;3.80;;;;;;;;;;5019160;28;20207;-76
2023/08/05 12:29:18;;;;;;;5.10;3.90;;;;;;;;;;5019150;28;20207;-76
2023/08/05 12:31:44;;;;;;;6.53;3.80;;;;;;;;;;5002768;28;20185;-76
2023/08/05 12:34:11;;;;;;;4.30;3.90;;;;;;;;;;5019071;28;20188;-78
2023/08/05 12:36:37;;;;;;;5.90;4.37;;;;;;;;;;5019363;28;20235;-79
2023/08/05 12:39:03;;;;;;;4.70;4.30;;;;;;;;;;5018833;28;20235;-78
2023/08/05 12:41:29;;;;;;;6.03;4.70;;;;;;;;;;5019461;28;20184;-78
2023/08/05 12:43:55;;;;;;;5.13;4.63;;;;;;;;;;5019240;28;20192;-78
2023/08/05 12:46:21;;;;;;;6.57;5.40;;;;;;;;;;4999820;28;20185;-78
2023/08/05 12:48:47;;;;;;;7.03;5.20;;;;;;;;;;4999447;28;20196;-79
2023/08/05 12:51:13;;;;;;;5.50;5.00;;;;;;;;;;4983370;28;20182;-76
2023/08/05 12:53:41;;;;;;;6.30;5.63;;;;;;;;;;4982957;28;20232;-75
2023/08/05 12:56:07;;;;;;;9.00;5.20;;;;;;;;;;4987710;28;20284;-75
2023/08/05 12:58:34;;;;;;;8.20;5.83;;;;;;;;;;5003680;28;20219;-75
2023/08/05 13:01:00;;;;;;;6.27;5.67;;;;;;;;;;5037054;28;20232;-75
2023/08/05 13:03:26;;;;;;;5.77;5.27;;;;;;;;;;4998176;28;20185;-75
2023/08/05 13:05:52;;;;;;;6.77;6.07;;;;;;;;;;5018307;28;20346;-76
2023/08/05 13:08:18;;;;;;;7.40;5.57;;;;;;;;;;5001338;28;20181;-76
2023/08/05 13:10:45;;;;;;;6.67;6.07;;;;;;;;;;5001858;28;20185;-75
2023/08/05 13:13:11;;;;;;;7.60;5.80;;;;;;;;;;5006312;28;20189;-76
2023/08/05 13:15:37;;;;;;;7.43;6.63;;;;;;;;;;5028105;28;20180;-76
2023/08/05 13:18:03;;;;;;;7.10;6.20;;;;;;;;;;5019077;28;20208;-76
2023/08/05 13:20:30;;;;;;;7.67;6.97;;;;;;;;;;5003197;28;20209;-76
2023/08/05 13:22:56;;;;;;;7.67;6.97;;;;;;;;;;5005764;28;20173;-76
2023/08/05 13:25:22;;;;;;;7.30;6.60;;;;;;;;;;5016558;28;20636;-79
2023/08/05 13:27:49;;;;;;;7.77;7.03;;;;;;;;;;5055737;28;20179;-79
2023/08/05 13:30:15;;;;;;;7.93;7.10;;;;;;;;;;5037527;28;20192;-79
2023/08/05 13:32:41;;;;;;;8.40;7.23;;;;;;;;;;5028541;28;20177;-78
2023/08/05 13:35:07;;;;;;;7.57;6.87;;;;;;;;;;5022734;28;20213;-78
2023/08/05 13:37:34;;;;;;;7.87;7.10;;;;;;;;;;5003963;28;20208;-78
2023/08/05 13:40:00;;;;;;;7.77;6.83;;;;;;;;;;5023886;28;20251;-78
2023/08/05 13:42:26;;;;;;;9.23;6.70;;;;;;;;;;4996988;28;20223;-77
2023/08/05 13:44:52;;;;;;;7.90;7.07;;;;;;;;;;4991500;28;20397;-77
2023/08/05 13:47:18;;;;;;;9.03;6.90;;;;;;;;;;5007166;28;20188;-77
2023/08/05 13:49:44;;;;;;;9.20;7.73;;;;;;;;;;5008523;28;20220;-77
2023/08/05 13:52:10;;;;;;;9.27;7.37;;;;;;;;;;4998384;28;20252;-76
2023/08/05 13:54:36;;;;;;;9.40;7.87;;;;;;;;;;4998246;28;20256;-76
2023/08/05 13:57:03;;;;;;;9.47;7.30;;;;;;;;;;4998108;28;20193;-76
2023/08/05 13:59:29;;;;;;;7.87;6.17;;;;;;;;;;5015797;28;20209;-79
2023/08/05 14:01:55;;;;;;;8.67;6.00;;;;;;;;;;4982234;28;20218;-78
2023/08/05 14:04:21;;;;;;;7.50;5.60;;;;;;;;;;4998024;28;20209;-78
2023/08/05 14:06:47;;;;;;;6.40;4.80;;;;;;;;;;4997997;28;20181;-78
2023/08/05 14:09:13;;;;;;;5.23;4.63;;;;;;;;;;4982135;28;20236;-78
2023/08/05 14:11:39;;;;;;;6.20;4.77;;;;;;;;;;4981979;28;20209;-78
2023/08/05 14:14:05;;;;;;;6.23;4.70;;;;;;;;;;4998100;28;20186;-76
2023/08/05 14:16:31;;;;;;;6.50;4.93;;;;;;;;;;5022245;28;20180;-76
2023/08/05 14:18:57;;;;;;;6.87;5.00;;;;;;;;;;5035240;28;20181;-75
2023/08/05 14:21:23;;;;;;;7.30;4.93;;;;;;;;;;5055040;28;20192;-75
2023/08/05 14:23:49;;;;;;;7.17;4.90;;;;;;;;;;5025194;28;20189;-75
2023/08/05 14:26:15;;;;;;;7.67;4.83;;;;;;;;;;5014682;28;20256;-75
2023/08/05 14:28:41;;;;;;;7.20;5.00;;;;;;;;;;5015316;28;20196;-75
2023/08/05 14:31:07;;;;;;;7.87;5.10;;;;;;;;;;5035026;28;20203;-75
2023/08/05 14:33:33;;;;;;;5.93;4.87;;;;;;;;;;5000926;28;20254;-75